KGAI

Montgomery County Airpark

Gaithersburg, Maryland, USA
METAR KGAI 220956Z AUTO 13006KT 10SM FEW022 BKN060 18/14 A3011 RMK AO2 SLP220 T01830139
Observed Flight Rules
May-22 @ 09:56 UTC (21 minutes ago) Visual Flight Rules
Wind Visibility Clouds
130° at 6 knots 10 miles
  • Few at 2,200' AGL
  • Broken at 6,000' AGL
Temperatures Readings
Current 18°C / 64°F
Dewpoint 14°C / 57°F
Humidity 78%
Altimeter 30.11" Hg
Pressure 1022 hPa
Elevation 165
METAR KGAI 220956Z AUTO 13006KT 10SM FEW022 BKN060 18/14 A3011 RMK AO2 SLP220 T01830139
Observed Flight Rules
May-22 @ 09:56 UTC
(21 minutes ago)
VFR
Wind Visibility
130° at 6 knots 10 miles
Clouds
  • Few at 2,200' AGL
  • Broken at 6,000' AGL
Temperature Dewpoint
18°C / 64°F 14°C / 57°F
Humidity Altimeter Pressure
78% 30.11" Hg 1022 hPa